createdAt,value
2022-08-16T00:01:25.033Z,22.76
2022-08-16T00:04:18.476Z,22.76
2022-08-16T00:07:09.355Z,22.70
2022-08-16T00:10:01.235Z,22.65
2022-08-16T00:12:51.386Z,22.57
2022-08-16T00:15:51.740Z,22.59
2022-08-16T00:18:43.994Z,22.59
2022-08-16T00:21:33.942Z,22.59
2022-08-16T00:24:31.392Z,22.55
2022-08-16T00:27:24.185Z,22.52
2022-08-16T00:30:28.513Z,22.41
2022-08-16T00:33:18.613Z,22.39
2022-08-16T00:36:08.900Z,22.17
2022-08-16T00:38:57.804Z,22.15
2022-08-16T00:41:49.745Z,22.09
2022-08-16T00:44:42.520Z,21.90
2022-08-16T00:47:31.750Z,21.87
2022-08-16T00:50:36.032Z,21.88
2022-08-16T00:53:25.950Z,21.81
2022-08-16T00:56:57.131Z,21.63
2022-08-16T00:59:33.008Z,21.64
2022-08-16T01:02:31.504Z,21.68
2022-08-16T01:05:22.792Z,21.74
2022-08-16T01:08:35.408Z,21.87
2022-08-16T01:11:27.112Z,21.87
2022-08-16T01:14:25.082Z,21.91
2022-08-16T01:17:20.883Z,21.87
2022-08-16T01:20:23.805Z,21.78
2022-08-16T01:23:18.319Z,21.78
2022-08-16T01:26:33.781Z,21.83
2022-08-16T01:29:24.358Z,21.82
2022-08-16T01:32:38.987Z,21.81
2022-08-16T01:35:35.371Z,21.80
2022-08-16T01:38:33.256Z,21.72
2022-08-16T01:41:26.572Z,21.71
2022-08-16T01:44:21.055Z,21.64
2022-08-16T01:47:10.774Z,21.71
2022-08-16T01:50:42.407Z,21.75
2022-08-16T01:53:11.936Z,21.79
2022-08-16T01:56:27.675Z,21.80
2022-08-16T01:59:17.850Z,21.87
2022-08-16T02:05:16.592Z,21.87
2022-08-16T02:08:08.727Z,21.84
2022-08-16T02:11:17.792Z,21.84
2022-08-16T02:14:18.231Z,21.86
2022-08-16T02:17:12.871Z,21.91
2022-08-16T02:20:11.655Z,21.96
2022-08-16T02:23:05.900Z,21.99
2022-08-16T02:25:54.936Z,22.02
2022-08-16T02:28:47.294Z,21.99
2022-08-16T02:32:04.577Z,21.93
2022-08-16T02:34:47.627Z,21.91
2022-08-16T02:37:52.788Z,21.86
2022-08-16T02:40:45.406Z,21.84
2022-08-16T02:43:36.316Z,21.86
2022-08-16T02:46:30.164Z,21.79
2022-08-16T02:49:58.542Z,21.75
2022-08-16T02:52:35.103Z,21.70
2022-08-16T02:55:41.321Z,21.58
2022-08-16T02:58:32.617Z,21.51
2022-08-16T03:01:37.106Z,21.38
2022-08-16T03:04:51.934Z,21.29
2022-08-16T03:07:50.541Z,21.16
2022-08-16T03:10:41.361Z,21.10
2022-08-16T03:13:40.002Z,20.99
2022-08-16T03:16:38.470Z,20.96
2022-08-16T03:19:48.068Z,20.87
2022-08-16T03:22:47.211Z,20.83
2022-08-16T03:25:41.058Z,20.78
2022-08-16T03:28:34.630Z,20.69
2022-08-16T03:31:25.303Z,20.74
2022-08-16T03:34:24.097Z,20.81
2022-08-16T03:37:12.974Z,20.85
2022-08-16T03:40:06.459Z,20.93
2022-08-16T03:43:19.231Z,20.93
2022-08-16T03:46:10.804Z,20.99
2022-08-16T03:49:00.561Z,20.95
2022-08-16T03:51:52.090Z,20.73
2022-08-16T03:54:53.408Z,20.67
2022-08-16T03:57:52.293Z,20.71
2022-08-16T04:00:43.210Z,20.74
2022-08-16T04:03:37.726Z,20.70
2022-08-16T04:06:26.918Z,20.70
2022-08-16T04:09:16.639Z,20.60
2022-08-16T04:12:10.363Z,20.55
2022-08-16T04:15:07.811Z,20.46
2022-08-16T04:18:01.998Z,20.51
2022-08-16T04:20:53.647Z,20.55
2022-08-16T04:23:48.346Z,20.52
2022-08-16T04:26:37.796Z,20.52
2022-08-16T04:29:46.126Z,20.58
2022-08-16T04:32:40.983Z,20.46
2022-08-16T04:35:34.075Z,20.54
2022-08-16T04:38:24.263Z,20.47
2022-08-16T04:41:14.745Z,20.44
2022-08-16T04:44:32.614Z,20.39
2022-08-16T04:47:21.390Z,20.47
2022-08-16T04:50:19.064Z,20.50
2022-08-16T04:53:22.880Z,20.48
2022-08-16T04:56:16.483Z,20.49
2022-08-16T04:59:08.324Z,20.51
2022-08-16T05:01:58.509Z,20.55
2022-08-16T05:04:48.470Z,20.42
2022-08-16T05:07:39.116Z,20.34
2022-08-16T05:10:47.926Z,20.41
2022-08-16T05:13:42.076Z,20.42
2022-08-16T05:16:34.824Z,20.48
2022-08-16T05:19:27.963Z,20.34
2022-08-16T05:22:36.336Z,20.57
2022-08-16T05:25:41.340Z,20.63
2022-08-16T05:28:37.584Z,20.60
2022-08-16T05:31:30.734Z,20.62
2022-08-16T05:34:22.274Z,20.64
2022-08-16T05:37:16.120Z,20.66
2022-08-16T05:40:13.152Z,20.72
2022-08-16T05:43:05.212Z,20.77
2022-08-16T05:45:55.927Z,20.87
2022-08-16T05:48:46.158Z,20.86
2022-08-16T05:51:46.029Z,20.85
2022-08-16T05:54:44.383Z,20.96
2022-08-16T05:57:36.156Z,21.02
2022-08-16T06:00:26.970Z,21.03
2022-08-16T06:03:17.784Z,20.96
2022-08-16T06:06:28.169Z,20.99
2022-08-16T06:09:19.910Z,21.00
2022-08-16T06:12:09.876Z,21.06
2022-08-16T06:15:04.306Z,21.13
2022-08-16T06:18:00.513Z,21.20
2022-08-16T06:20:55.166Z,21.21
2022-08-16T06:23:48.620Z,21.20
2022-08-16T06:26:44.992Z,21.20
2022-08-16T06:29:50.292Z,21.26
2022-08-16T06:32:42.888Z,21.22
2022-08-16T06:35:15.764Z,21.26
2022-08-16T06:37:51.269Z,21.33
2022-08-16T06:40:22.221Z,21.34
2022-08-16T06:43:03.080Z,21.42
2022-08-16T06:45:43.696Z,21.47
2022-08-16T06:48:21.234Z,21.47
2022-08-16T06:51:05.552Z,21.53
2022-08-16T06:53:36.397Z,21.59
2022-08-16T06:56:14.929Z,21.63
2022-08-16T06:59:03.502Z,21.68
2022-08-16T07:01:53.684Z,21.73
2022-08-16T07:04:32.639Z,21.73
2022-08-16T07:07:11.897Z,21.78
2022-08-16T07:09:44.570Z,21.82
2022-08-16T07:12:15.355Z,21.88
2022-08-16T07:14:47.869Z,21.96
2022-08-16T07:17:21.853Z,21.99
2022-08-16T07:20:29.377Z,22.00
2022-08-16T07:22:59.015Z,21.98
2022-08-16T07:25:34.276Z,22.10
2022-08-16T07:28:12.111Z,22.12
2022-08-16T07:30:49.970Z,22.25
2022-08-16T07:33:52.776Z,22.20
2022-08-16T07:36:21.639Z,22.36
2022-08-16T07:38:55.583Z,22.46
2022-08-16T07:41:24.567Z,22.55
2022-08-16T07:44:00.550Z,22.64
2022-08-16T07:46:38.947Z,22.72
2022-08-16T07:49:19.371Z,22.75
2022-08-16T07:51:48.545Z,22.85
2022-08-16T07:54:32.277Z,22.94
2022-08-16T07:57:11.333Z,22.99
2022-08-16T07:59:45.664Z,22.99
2022-08-16T08:02:20.290Z,23.08
2022-08-16T08:04:54.873Z,23.17
2022-08-16T08:07:28.106Z,23.23
2022-08-16T08:09:59.271Z,23.35
2022-08-16T08:12:31.557Z,23.46
2022-08-16T08:15:05.889Z,23.57
2022-08-16T08:17:43.986Z,23.58
2022-08-16T08:20:28.309Z,23.78
2022-08-16T08:23:01.613Z,23.85
2022-08-16T08:25:54.905Z,23.96
2022-08-16T08:28:26.731Z,24.02
2022-08-16T08:31:02.985Z,24.14
2022-08-16T08:33:36.535Z,24.24
2022-08-16T08:36:11.908Z,24.32
2022-08-16T08:38:53.429Z,24.46
2022-08-16T08:41:29.619Z,24.51
2022-08-16T08:44:01.281Z,24.59
2022-08-16T08:47:00.151Z,24.53
2022-08-16T08:49:50.295Z,24.68
2022-08-16T08:52:33.683Z,24.84
2022-08-16T08:55:10.723Z,24.93
2022-08-16T08:57:43.829Z,25.03
2022-08-16T09:00:31.883Z,25.25
2022-08-16T09:03:19.132Z,25.35
2022-08-16T09:05:51.960Z,25.47
2022-08-16T09:08:22.578Z,25.63
2022-08-16T09:11:03.215Z,25.67
2022-08-16T09:13:34.527Z,25.83
2022-08-16T09:16:05.152Z,25.97
2022-08-16T09:18:35.761Z,26.16
2022-08-16T09:21:09.531Z,26.24
2022-08-16T09:23:39.757Z,26.33
2022-08-16T09:26:44.066Z,26.39
2022-08-16T09:29:15.825Z,26.59
2022-08-16T09:31:53.464Z,26.71
2022-08-16T09:34:22.280Z,26.79
2022-08-16T09:36:54.579Z,26.87
2022-08-16T09:39:23.981Z,27.11
2022-08-16T09:41:54.346Z,27.39
2022-08-16T09:45:09.735Z,27.80
2022-08-16T09:47:14.819Z,28.26
2022-08-16T09:49:43.628Z,28.60
2022-08-16T09:52:22.379Z,28.86
2022-08-16T09:54:51.742Z,28.70
2022-08-16T09:57:20.486Z,28.76
2022-08-16T09:59:55.999Z,28.78
2022-08-16T10:02:27.860Z,28.98
2022-08-16T10:04:58.560Z,28.91
2022-08-16T10:07:44.399Z,29.01
2022-08-16T10:10:30.387Z,29.00
2022-08-16T10:13:16.344Z,29.03
2022-08-16T10:15:55.680Z,29.51
2022-08-16T10:19:02.011Z,29.81
2022-08-16T10:21:17.315Z,30.35
2022-08-16T10:23:48.595Z,30.51
2022-08-16T10:27:16.244Z,30.78
2022-08-16T10:29:06.900Z,30.90
2022-08-16T10:31:44.241Z,30.96
2022-08-16T10:34:30.999Z,31.22
2022-08-16T10:37:01.966Z,31.31
2022-08-16T10:39:40.547Z,31.67
2022-08-16T10:42:13.338Z,32.03
2022-08-16T10:44:42.720Z,32.11
2022-08-16T10:47:24.377Z,32.36
2022-08-16T10:49:53.014Z,32.30
2022-08-16T10:52:24.332Z,31.86
2022-08-16T10:57:43.225Z,31.99
2022-08-16T11:00:22.307Z,32.24
2022-08-16T11:02:57.740Z,32.44
2022-08-16T11:08:31.274Z,33.12
2022-08-16T11:11:11.824Z,33.22
2022-08-16T11:14:11.223Z,33.51
2022-08-16T11:19:28.262Z,34.03
2022-08-16T11:22:23.158Z,33.94
2022-08-16T11:25:11.955Z,34.04
2022-08-16T11:27:37.595Z,33.93
2022-08-16T11:30:12.283Z,34.09
2022-08-16T11:32:48.774Z,34.09
2022-08-16T11:35:43.416Z,34.20
2022-08-16T11:38:46.897Z,34.54
2022-08-16T11:41:03.985Z,34.85
2022-08-16T11:43:34.971Z,34.91
2022-08-16T11:46:45.100Z,34.83
2022-08-16T11:48:57.363Z,34.85
2022-08-16T11:51:27.377Z,35.03
2022-08-16T11:53:57.236Z,35.10
2022-08-16T11:56:39.732Z,34.64
2022-08-16T11:59:16.007Z,34.49
2022-08-16T12:01:59.182Z,34.30
2022-08-16T12:04:29.199Z,34.19
2022-08-16T12:07:00.202Z,34.28
2022-08-16T12:09:30.616Z,34.73
2022-08-16T12:12:03.091Z,35.15
2022-08-16T12:14:35.529Z,35.70
2022-08-16T12:17:08.500Z,35.76
2022-08-16T12:19:37.135Z,35.20
2022-08-16T12:22:19.047Z,34.92
2022-08-16T12:24:52.126Z,34.77
2022-08-16T12:27:24.522Z,34.94
2022-08-16T12:29:54.025Z,35.57
2022-08-16T12:32:38.287Z,35.95
2022-08-16T12:35:14.387Z,35.33
2022-08-16T12:37:46.262Z,34.71
2022-08-16T12:40:25.009Z,34.64
2022-08-16T12:42:59.718Z,34.85
2022-08-16T12:45:31.792Z,34.86
2022-08-16T12:48:35.034Z,34.52
2022-08-16T12:51:10.902Z,34.47
2022-08-16T12:53:52.027Z,34.41
2022-08-16T12:56:22.167Z,34.89
2022-08-16T12:58:55.919Z,35.36
2022-08-16T13:01:29.886Z,35.75
2022-08-16T13:04:20.800Z,35.31
2022-08-16T13:06:50.411Z,35.14
2022-08-16T13:09:26.022Z,35.09
2022-08-16T13:12:04.351Z,35.56
2022-08-16T13:14:38.879Z,36.19
2022-08-16T13:17:14.205Z,36.34
2022-08-16T13:25:20.882Z,36.05
2022-08-16T13:28:02.308Z,35.41
2022-08-16T13:30:41.162Z,34.96
2022-08-16T13:33:13.395Z,34.70
2022-08-16T13:35:45.363Z,34.90
2022-08-16T13:38:24.360Z,35.22
2022-08-16T13:40:57.676Z,35.28
2022-08-16T13:43:27.281Z,35.23
2022-08-16T13:45:56.456Z,35.09
2022-08-16T13:48:25.945Z,35.56
2022-08-16T13:51:00.570Z,35.86
2022-08-16T13:53:32.972Z,35.74
2022-08-16T13:56:02.746Z,35.16
2022-08-16T13:58:36.677Z,34.71
2022-08-16T14:01:09.763Z,34.94
2022-08-16T14:03:40.044Z,34.85
2022-08-16T14:06:10.989Z,35.39
2022-08-16T14:08:42.211Z,35.82
2022-08-16T14:11:14.412Z,36.44
2022-08-16T14:13:44.638Z,37.04
2022-08-16T14:16:23.478Z,37.56
2022-08-16T14:18:53.626Z,37.40
2022-08-16T14:21:23.876Z,36.93
2022-08-16T14:23:53.242Z,36.35
2022-08-16T14:26:24.983Z,35.98
2022-08-16T14:28:54.610Z,35.98
2022-08-16T14:31:27.088Z,35.79
2022-08-16T14:33:55.948Z,35.85
2022-08-16T14:36:29.518Z,35.69
2022-08-16T14:38:59.385Z,35.52
2022-08-16T14:41:29.998Z,35.63
2022-08-16T14:43:59.129Z,35.83
2022-08-16T14:46:27.534Z,36.10
2022-08-16T14:48:56.499Z,36.51
2022-08-16T14:51:27.391Z,36.81
2022-08-16T14:53:57.382Z,37.24
2022-08-16T14:56:38.976Z,37.59
2022-08-16T14:59:14.224Z,37.69
2022-08-16T15:01:58.841Z,37.25
2022-08-16T15:04:39.653Z,37.33
2022-08-16T15:07:18.253Z,37.27
2022-08-16T15:10:00.400Z,37.20
2022-08-16T15:12:33.993Z,37.12
2022-08-16T15:15:12.466Z,36.66
2022-08-16T15:17:54.213Z,36.65
2022-08-16T15:20:29.509Z,36.75
2022-08-16T15:22:59.853Z,36.68
2022-08-16T15:25:32.192Z,36.52
2022-08-16T15:28:04.762Z,35.86
2022-08-16T15:30:57.082Z,35.72
2022-08-16T15:33:27.771Z,35.49
2022-08-16T15:35:58.370Z,35.34
2022-08-16T15:38:43.585Z,35.42
2022-08-16T15:41:49.938Z,35.34
2022-08-16T15:44:22.170Z,35.32
2022-08-16T15:46:58.500Z,35.03
2022-08-16T15:49:34.641Z,34.81
2022-08-16T15:52:10.447Z,34.80
2022-08-16T15:54:53.678Z,34.30
2022-08-16T15:57:25.468Z,34.49
2022-08-16T15:59:55.646Z,34.71
2022-08-16T16:02:30.543Z,34.71
2022-08-16T16:05:02.376Z,34.70
2022-08-16T16:07:34.033Z,34.74
2022-08-16T16:10:13.274Z,34.77
2022-08-16T16:12:51.285Z,34.22
2022-08-16T16:15:26.113Z,34.11
2022-08-16T16:18:09.446Z,34.34
2022-08-16T16:20:42.284Z,34.56
2022-08-16T16:23:12.492Z,34.60
2022-08-16T16:25:43.808Z,34.74
2022-08-16T16:29:04.973Z,34.97
2022-08-16T16:31:08.251Z,35.11
2022-08-16T16:33:41.930Z,35.31
2022-08-16T16:36:15.357Z,35.36
2022-08-16T16:38:47.627Z,35.08
2022-08-16T16:41:20.476Z,34.83
2022-08-16T16:43:53.326Z,34.87
2022-08-16T16:46:42.063Z,34.80
2022-08-16T16:49:15.095Z,34.88
2022-08-16T16:51:49.843Z,34.72
2022-08-16T16:54:27.862Z,34.54
2022-08-16T16:56:58.764Z,34.08
2022-08-16T16:59:28.474Z,33.86
2022-08-16T17:02:41.232Z,33.89
2022-08-16T17:04:49.818Z,33.82
2022-08-16T17:07:24.104Z,33.80
2022-08-16T17:09:53.748Z,33.67
2022-08-16T17:12:25.479Z,33.67
2022-08-16T17:15:12.673Z,33.46
2022-08-16T17:17:59.811Z,33.36
2022-08-16T17:20:31.153Z,33.45
2022-08-16T17:23:01.190Z,33.56
2022-08-16T17:25:36.636Z,33.63
2022-08-16T17:28:58.651Z,33.46
2022-08-16T17:30:58.504Z,33.50
2022-08-16T17:33:36.927Z,33.50
2022-08-16T17:36:36.590Z,33.53
2022-08-16T17:39:07.979Z,33.51
2022-08-16T17:41:38.323Z,33.50
2022-08-16T17:44:08.655Z,33.53
2022-08-16T17:46:51.404Z,33.51
2022-08-16T17:49:21.984Z,33.42
2022-08-16T17:51:51.731Z,33.32
2022-08-16T17:54:30.811Z,33.22
2022-08-16T17:57:00.420Z,33.03
2022-08-16T17:59:29.856Z,32.82
2022-08-16T18:01:59.330Z,32.53
2022-08-16T18:04:49.861Z,32.35
2022-08-16T18:07:17.859Z,32.13
2022-08-16T18:09:46.256Z,31.97
2022-08-16T18:12:19.858Z,31.80
2022-08-16T18:15:12.055Z,31.66
2022-08-16T18:17:40.956Z,31.57
2022-08-16T18:20:33.264Z,31.44
2022-08-16T18:23:07.975Z,31.32
2022-08-16T18:25:37.418Z,31.20
2022-08-16T18:28:06.701Z,31.03
2022-08-16T18:30:35.056Z,30.93
2022-08-16T18:33:03.556Z,30.75
2022-08-16T18:35:32.111Z,30.63
2022-08-16T18:38:00.606Z,30.51
2022-08-16T18:40:31.867Z,30.45
2022-08-16T18:43:01.980Z,30.33
2022-08-16T18:45:35.321Z,30.20
2022-08-16T18:48:06.636Z,30.08
2022-08-16T18:50:59.632Z,29.93
2022-08-16T18:53:26.887Z,29.82
2022-08-16T18:56:00.844Z,29.76
2022-08-16T18:58:31.037Z,29.60
2022-08-16T19:01:00.258Z,29.48
2022-08-16T19:03:31.164Z,29.29
2022-08-16T19:06:02.350Z,29.05
2022-08-16T19:08:32.673Z,28.91
2022-08-16T19:11:02.893Z,28.97
2022-08-16T19:13:33.407Z,28.95
2022-08-16T19:16:04.301Z,28.92
2022-08-16T19:18:36.565Z,28.84
2022-08-16T19:21:06.738Z,28.77
2022-08-16T19:23:37.426Z,28.61
2022-08-16T19:26:10.211Z,28.46
2022-08-16T19:28:58.306Z,28.34
2022-08-16T19:31:31.491Z,28.26
2022-08-16T19:34:00.642Z,28.15
2022-08-16T19:36:35.988Z,28.10
2022-08-16T19:39:08.821Z,27.98
2022-08-16T19:41:42.020Z,27.93
2022-08-16T19:44:11.348Z,27.87
2022-08-16T19:46:41.746Z,27.75
2022-08-16T19:49:10.196Z,27.71
2022-08-16T19:51:45.446Z,27.66
2022-08-16T19:54:13.896Z,27.66
2022-08-16T19:56:43.704Z,27.61
2022-08-16T19:59:19.238Z,27.59
2022-08-16T20:01:51.900Z,27.42
2022-08-16T20:04:21.642Z,27.38
2022-08-16T20:06:50.491Z,27.32
2022-08-16T20:09:22.457Z,27.26
2022-08-16T20:11:53.510Z,27.17
2022-08-16T20:14:25.422Z,27.15
2022-08-16T20:16:56.827Z,27.06
2022-08-16T20:19:27.117Z,27.02
2022-08-16T20:22:01.721Z,27.00
2022-08-16T20:24:34.596Z,26.84
2022-08-16T20:27:07.883Z,26.80
2022-08-16T20:29:37.706Z,26.74
2022-08-16T20:32:08.506Z,26.73
2022-08-16T20:34:37.476Z,26.69
2022-08-16T20:37:06.340Z,26.62
2022-08-16T20:39:35.064Z,26.58
2022-08-16T20:42:04.836Z,26.57
2022-08-16T20:44:33.959Z,26.57
2022-08-16T20:47:02.343Z,26.50
2022-08-16T20:49:30.751Z,26.35
2022-08-16T20:51:59.837Z,26.33
2022-08-16T20:54:29.872Z,26.29
2022-08-16T20:56:58.804Z,26.17
2022-08-16T20:59:28.874Z,26.08
2022-08-16T21:01:59.570Z,26.08
2022-08-16T21:04:30.115Z,26.00
2022-08-16T21:06:59.817Z,25.95
2022-08-16T21:09:32.406Z,25.91
2022-08-16T21:12:03.491Z,25.88
2022-08-16T21:14:34.390Z,25.78
2022-08-16T21:17:03.863Z,25.69
2022-08-16T21:19:33.870Z,25.62
2022-08-16T21:22:12.354Z,25.64
2022-08-16T21:24:41.083Z,25.57
2022-08-16T21:27:09.772Z,25.46
2022-08-16T21:29:43.420Z,25.35
2022-08-16T21:32:14.814Z,25.29
2022-08-16T21:34:43.678Z,25.23
2022-08-16T21:37:15.471Z,25.18
2022-08-16T21:39:45.788Z,25.13
2022-08-16T21:42:17.280Z,24.99
2022-08-16T21:44:47.044Z,25.01
2022-08-16T21:47:16.251Z,24.99
2022-08-16T21:49:44.623Z,24.99
2022-08-16T21:52:26.464Z,24.91
2022-08-16T21:54:56.900Z,24.77
2022-08-16T21:57:26.107Z,24.66
2022-08-16T21:59:56.932Z,24.60
2022-08-16T22:02:35.762Z,24.55
2022-08-16T22:05:07.915Z,24.46
2022-08-16T22:07:36.375Z,24.37
2022-08-16T22:11:06.899Z,24.35
2022-08-16T22:12:55.032Z,24.32
2022-08-16T22:15:26.062Z,24.39
2022-08-16T22:17:56.567Z,24.31
2022-08-16T22:20:26.441Z,24.26
2022-08-16T22:23:06.985Z,24.22
2022-08-16T22:25:35.771Z,24.14
2022-08-16T22:28:05.267Z,24.14
2022-08-16T22:30:35.852Z,24.10
2022-08-16T22:33:09.290Z,24.10
2022-08-16T22:35:42.808Z,24.07
2022-08-16T22:38:55.527Z,24.05
2022-08-16T22:41:00.871Z,24.03
2022-08-16T22:43:30.283Z,23.99
2022-08-16T22:46:00.637Z,23.95
2022-08-16T22:48:29.014Z,23.93
2022-08-16T22:50:58.247Z,23.91
2022-08-16T22:53:26.922Z,23.82
2022-08-16T22:55:57.198Z,23.79
2022-08-16T22:58:34.202Z,23.77
2022-08-16T23:01:07.733Z,23.71
2022-08-16T23:03:37.610Z,23.64
2022-08-16T23:06:07.503Z,23.63
2022-08-16T23:08:40.556Z,23.58
2022-08-16T23:11:12.444Z,23.48
2022-08-16T23:13:52.795Z,23.43
2022-08-16T23:16:32.373Z,23.36
2022-08-16T23:19:05.685Z,23.22
2022-08-16T23:21:37.435Z,23.09
2022-08-16T23:24:07.113Z,23.07
2022-08-16T23:26:46.231Z,23.04
2022-08-16T23:29:24.367Z,23.00
2022-08-16T23:31:59.859Z,23.02
2022-08-16T23:34:29.790Z,23.05
2022-08-16T23:36:58.202Z,23.04
2022-08-16T23:39:27.363Z,22.99
2022-08-16T23:41:55.814Z,22.96
2022-08-16T23:44:56.922Z,22.90
2022-08-16T23:47:14.226Z,22.85
2022-08-16T23:49:56.418Z,22.82
2022-08-16T23:52:54.638Z,22.77
2022-08-16T23:55:20.370Z,22.72
2022-08-16T23:57:49.047Z,22.71
